createdAt,value
2019-06-07T00:03:01.308Z,2.83
2019-06-07T00:07:09.075Z,2.63
2019-06-07T00:11:16.520Z,3.77
2019-06-07T00:15:26.542Z,2.60
2019-06-07T00:19:24.758Z,4.42
2019-06-07T00:23:29.193Z,4.53
2019-06-07T00:27:33.472Z,2.92
2019-06-07T00:31:37.654Z,3.47
2019-06-07T00:35:41.947Z,3.85
2019-06-07T00:40:07.612Z,2.92
2019-06-07T00:43:52.371Z,2.90
2019-06-07T00:47:56.464Z,3.22
2019-06-07T00:52:00.561Z,5.55
2019-06-07T00:56:04.662Z,2.73
2019-06-07T01:00:31.049Z,2.65
2019-06-07T01:04:35.209Z,1.63
2019-06-07T01:08:39.206Z,3.67
2019-06-07T01:12:43.405Z,2.00
2019-06-07T01:16:57.370Z,2.80
2019-06-07T01:20:53.162Z,1.67
2019-06-07T01:24:57.266Z,1.57
2019-06-07T01:29:01.411Z,2.00
2019-06-07T01:33:05.605Z,2.87
2019-06-07T01:37:09.744Z,1.92
2019-06-07T01:41:13.827Z,3.53
2019-06-07T01:45:19.473Z,2.77
2019-06-07T01:49:26.599Z,2.37
2019-06-07T01:53:31.593Z,2.17
2019-06-07T01:57:47.668Z,2.73
2019-06-07T02:01:40.958Z,2.73
2019-06-07T02:05:45.054Z,2.35
2019-06-07T02:09:49.147Z,3.17
2019-06-07T02:13:53.156Z,2.50
2019-06-07T02:17:57.155Z,2.50
2019-06-07T02:22:01.219Z,3.85
2019-06-07T02:26:05.335Z,2.63
2019-06-07T02:30:36.736Z,2.92
2019-06-07T02:34:15.454Z,2.77
2019-06-07T02:38:19.413Z,2.10
2019-06-07T02:42:26.172Z,3.40
2019-06-07T02:46:39.983Z,3.57
2019-06-07T02:50:38.346Z,3.77
2019-06-07T02:54:41.021Z,5.20
2019-06-07T02:58:45.129Z,2.63
2019-06-07T03:02:49.234Z,4.80
2019-06-07T03:06:53.796Z,4.28
2019-06-07T03:10:58.130Z,4.07
2019-06-07T03:15:03.086Z,3.65
2019-06-07T03:19:19.333Z,4.47
2019-06-07T03:23:24.022Z,3.30
2019-06-07T03:27:36.211Z,4.00
2019-06-07T03:31:45.415Z,4.17
2019-06-07T03:35:40.649Z,5.43
2019-06-07T03:39:44.906Z,3.60
2019-06-07T03:43:48.903Z,6.10
2019-06-07T03:47:53.020Z,4.37
2019-06-07T03:51:57.326Z,4.40
2019-06-07T03:56:01.898Z,3.42
2019-06-07T04:00:52.638Z,4.27
2019-06-07T04:04:56.699Z,4.90
2019-06-07T04:09:00.964Z,3.60
2019-06-07T04:13:06.603Z,3.97
2019-06-07T04:17:10.906Z,5.25
2019-06-07T04:21:15.222Z,4.22
2019-06-07T04:25:19.284Z,4.13
2019-06-07T04:29:32.949Z,4.63
2019-06-07T04:33:31.203Z,4.30
2019-06-07T04:37:40.668Z,4.80
2019-06-07T04:41:44.559Z,4.10
2019-06-07T04:45:51.181Z,4.40
2019-06-07T04:49:55.919Z,4.33
2019-06-07T04:54:00.433Z,4.00
2019-06-07T04:58:05.462Z,4.63
2019-06-07T05:02:09.752Z,5.13
2019-06-07T05:06:13.823Z,4.77
2019-06-07T05:10:17.948Z,4.40
2019-06-07T05:14:22.137Z,4.65
2019-06-07T05:18:26.213Z,5.05
2019-06-07T05:22:31.605Z,5.55
2019-06-07T05:26:39.216Z,5.83
2019-06-07T05:34:47.818Z,7.70
2019-06-07T05:38:52.013Z,3.60
2019-06-07T05:42:56.131Z,3.30
2019-06-07T05:47:00.186Z,2.87
2019-06-07T05:51:04.624Z,3.47
2019-06-07T05:55:08.766Z,3.52
2019-06-07T05:59:13.227Z,4.07
2019-06-07T06:03:17.275Z,4.53
2019-06-07T06:07:21.397Z,4.55
2019-06-07T06:11:43.362Z,3.50
2019-06-07T06:15:42.254Z,3.80
2019-06-07T06:19:40.711Z,3.45
2019-06-07T06:23:45.848Z,4.22
2019-06-07T06:28:09.909Z,3.15
2019-06-07T06:32:40.528Z,5.28
2019-06-07T06:36:01.787Z,4.95
2019-06-07T06:40:06.118Z,4.22
2019-06-07T06:44:10.580Z,5.33
2019-06-07T06:48:14.941Z,5.28
2019-06-07T06:52:19.102Z,5.10
2019-06-07T06:56:23.175Z,5.92
2019-06-07T07:00:55.452Z,6.08
2019-06-07T07:04:53.504Z,6.17
2019-06-07T07:08:56.735Z,6.12
2019-06-07T07:13:00.806Z,6.00
2019-06-07T07:17:04.879Z,8.03
2019-06-07T07:21:10.038Z,6.53
2019-06-07T07:25:14.190Z,4.85
2019-06-07T07:29:18.175Z,5.08
2019-06-07T07:33:22.415Z,6.83
2019-06-07T07:37:26.897Z,5.78
2019-06-07T07:41:32.501Z,4.42
2019-06-07T07:45:36.920Z,3.83
2019-06-07T07:49:40.968Z,3.75
2019-06-07T07:53:54.350Z,3.90
2019-06-07T07:57:56.794Z,4.35
2019-06-07T08:01:58.545Z,3.30
2019-06-07T08:06:02.958Z,4.22
2019-06-07T08:10:07.320Z,5.30
2019-06-07T08:14:11.509Z,3.35
2019-06-07T08:18:15.561Z,3.80
2019-06-07T08:22:19.762Z,3.05
2019-06-07T08:26:24.264Z,3.05
2019-06-07T08:30:49.788Z,2.67
2019-06-07T08:34:34.303Z,3.45
2019-06-07T08:38:47.384Z,2.40
2019-06-07T08:43:04.444Z,4.12
2019-06-07T08:46:55.631Z,4.55
2019-06-07T08:51:00.717Z,2.22
2019-06-07T08:55:04.928Z,2.83
2019-06-07T08:59:11.415Z,2.12
2019-06-07T09:03:13.476Z,2.25
2019-06-07T09:07:19.995Z,2.87
2019-06-07T09:11:23.450Z,4.55
2019-06-07T09:15:30.018Z,3.08
2019-06-07T09:19:34.142Z,2.17
2019-06-07T09:23:38.220Z,2.17
2019-06-07T09:27:42.491Z,1.87
2019-06-07T09:31:53.221Z,1.32
2019-06-07T09:35:52.838Z,1.75
2019-06-07T09:40:00.530Z,1.42
2019-06-07T09:44:18.976Z,1.98
2019-06-07T09:48:13.645Z,2.10
2019-06-07T09:52:15.156Z,1.30
2019-06-07T09:56:19.215Z,1.47
2019-06-07T10:00:39.797Z,1.95
2019-06-07T10:04:31.594Z,1.60
2019-06-07T10:09:56.854Z,1.20
2019-06-07T10:12:40.970Z,1.10
2019-06-07T10:16:46.890Z,2.08
2019-06-07T10:20:52.024Z,1.40
2019-06-07T10:24:56.342Z,1.62
2019-06-07T10:29:01.835Z,3.08
2019-06-07T10:33:06.866Z,2.00
2019-06-07T10:37:14.988Z,1.35
2019-06-07T10:41:17.185Z,1.55
2019-06-07T10:45:21.308Z,1.65
2019-06-07T10:49:25.377Z,2.02
2019-06-07T10:53:29.547Z,1.02
2019-06-07T10:57:33.921Z,1.00
2019-06-07T11:01:38.324Z,1.17
2019-06-07T11:05:42.496Z,1.75
2019-06-07T11:09:46.636Z,1.10
2019-06-07T11:13:52.577Z,4.92
2019-06-07T11:17:56.311Z,0.93
2019-06-07T11:22:00.274Z,0.70
2019-06-07T11:26:04.422Z,0.88
2019-06-07T11:30:08.664Z,0.70
2019-06-07T11:34:12.818Z,0.90
2019-06-07T11:38:16.906Z,1.45
2019-06-07T11:42:23.345Z,2.22
2019-06-07T11:46:27.571Z,1.02
2019-06-07T11:50:31.672Z,0.57
2019-06-07T11:54:35.773Z,1.37
2019-06-07T11:58:40.001Z,1.95
2019-06-07T12:02:44.179Z,1.15
2019-06-07T12:06:48.250Z,1.27
2019-06-07T12:10:52.379Z,1.27
2019-06-07T12:14:56.536Z,1.32
2019-06-07T12:19:00.666Z,1.17
2019-06-07T12:23:05.797Z,0.98
2019-06-07T12:27:10.343Z,1.15
2019-06-07T12:31:15.072Z,1.42
2019-06-07T12:35:19.997Z,1.32
2019-06-07T12:39:24.458Z,1.20
2019-06-07T12:43:28.530Z,0.75
2019-06-07T12:47:32.798Z,0.80
2019-06-07T12:51:36.843Z,0.98
2019-06-07T12:55:41.018Z,0.80
2019-06-07T12:59:44.975Z,1.45
2019-06-07T13:03:49.346Z,1.92
2019-06-07T13:07:53.526Z,1.00
2019-06-07T13:11:57.691Z,1.00
2019-06-07T13:16:01.986Z,0.78
2019-06-07T13:20:06.413Z,0.88
2019-06-07T13:24:10.618Z,0.90
2019-06-07T13:28:14.739Z,0.90
2019-06-07T13:32:20.019Z,1.42
2019-06-07T13:36:24.505Z,1.00
2019-06-07T13:40:28.863Z,0.95
2019-06-07T13:44:32.965Z,1.75
2019-06-07T13:48:38.437Z,2.75
2019-06-07T13:52:44.727Z,1.02
2019-06-07T13:57:01.315Z,1.05
2019-06-07T14:00:54.450Z,0.80
2019-06-07T14:04:58.540Z,1.72
2019-06-07T14:09:03.961Z,1.02
2019-06-07T14:13:08.677Z,0.82
2019-06-07T14:17:12.798Z,1.65
2019-06-07T14:21:16.940Z,3.92
2019-06-07T14:25:21.135Z,1.27
2019-06-07T14:29:25.624Z,2.10
2019-06-07T14:33:30.642Z,3.20
2019-06-07T14:37:35.574Z,0.70
2019-06-07T14:41:40.149Z,1.67
2019-06-07T14:45:44.331Z,1.10
2019-06-07T14:49:48.434Z,1.77
2019-06-07T14:53:52.290Z,2.62
2019-06-07T14:57:56.321Z,1.25
2019-06-07T15:02:00.486Z,1.22
2019-06-07T15:06:04.747Z,1.45
2019-06-07T15:10:09.223Z,0.95
2019-06-07T15:14:16.658Z,3.52
2019-06-07T15:18:19.207Z,1.52
2019-06-07T15:22:23.339Z,3.55
2019-06-07T15:26:28.371Z,7.92
2019-06-07T15:30:33.661Z,5.28
2019-06-07T15:34:38.424Z,3.65
2019-06-07T15:38:42.472Z,5.75
2019-06-07T15:42:52.784Z,1.82
2019-06-07T15:46:52.333Z,2.15
2019-06-07T15:50:56.539Z,0.57
2019-06-07T15:55:00.736Z,5.42
2019-06-07T15:59:05.150Z,0.20
2019-06-07T16:03:09.286Z,0.60
2019-06-07T16:07:17.016Z,0.25
2019-06-07T16:11:21.096Z,0.17
2019-06-07T16:15:25.450Z,0.30
2019-06-07T16:19:29.971Z,0.30
2019-06-07T16:23:35.657Z,0.53
2019-06-07T16:27:40.738Z,2.58
2019-06-07T16:31:45.270Z,0.10
2019-06-07T16:35:49.718Z,0.10
2019-06-07T16:39:54.175Z,0.80
2019-06-07T16:43:58.568Z,1.35
2019-06-07T16:48:03.123Z,0.10
2019-06-07T16:52:07.513Z,0.20
2019-06-07T16:56:11.810Z,1.00
2019-06-07T17:00:16.680Z,0.20
2019-06-07T17:04:21.405Z,0.20
2019-06-07T17:08:25.518Z,0.20
2019-06-07T17:12:29.639Z,0.20
2019-06-07T17:16:33.840Z,0.28
2019-06-07T17:20:39.022Z,0.95
2019-06-07T17:24:43.583Z,2.58
2019-06-07T17:28:47.854Z,0.28
2019-06-07T17:32:59.040Z,0.75
2019-06-07T17:36:57.647Z,0.42
2019-06-07T17:41:01.888Z,0.47
2019-06-07T17:45:06.606Z,0.40
2019-06-07T17:49:10.709Z,1.37
2019-06-07T17:53:15.134Z,0.90
2019-06-07T17:57:19.510Z,0.85
2019-06-07T18:01:40.664Z,0.10
2019-06-07T18:05:33.039Z,0.42
2019-06-07T18:09:37.482Z,0.42
2019-06-07T18:13:41.538Z,0.40
2019-06-07T18:17:46.455Z,0.30
2019-06-07T18:21:55.572Z,0.37
2019-06-07T18:25:56.635Z,1.20
2019-06-07T18:30:10.881Z,0.40
2019-06-07T18:34:07.649Z,0.20
2019-06-07T18:38:15.411Z,0.50
2019-06-07T18:42:19.504Z,0.20
2019-06-07T18:46:23.596Z,0.40
2019-06-07T18:50:27.820Z,0.47
2019-06-07T18:54:32.117Z,0.50
2019-06-07T18:58:36.243Z,2.05
2019-06-07T19:02:40.507Z,1.87
2019-06-07T19:06:48.219Z,0.35
2019-06-07T19:11:00.454Z,0.75
2019-06-07T19:15:09.319Z,0.88
2019-06-07T19:19:13.737Z,0.30
2019-06-07T19:23:18.412Z,2.10
2019-06-07T19:27:22.690Z,1.05
2019-06-07T19:31:29.677Z,0.37
2019-06-07T19:35:34.078Z,0.45
2019-06-07T19:39:38.607Z,0.28
2019-06-07T19:43:42.926Z,0.30
2019-06-07T19:47:47.133Z,2.10
2019-06-07T19:51:51.178Z,0.62
2019-06-07T19:55:55.414Z,0.35
2019-06-07T19:59:59.614Z,2.72
2019-06-07T20:04:04.461Z,2.17
2019-06-07T20:08:08.475Z,0.40
2019-06-07T20:12:12.641Z,1.70
2019-06-07T20:16:16.994Z,0.33
2019-06-07T20:20:23.825Z,1.17
2019-06-07T20:24:27.678Z,0.50
2019-06-07T20:28:32.454Z,0.85
2019-06-07T20:32:36.892Z,0.85
2019-06-07T20:36:41.126Z,0.45
2019-06-07T20:40:45.413Z,0.62
2019-06-07T20:44:49.616Z,1.27
2019-06-07T20:48:54.112Z,0.65
2019-06-07T20:52:59.857Z,0.23
2019-06-07T20:57:04.787Z,0.80
2019-06-07T21:01:09.112Z,1.95
2019-06-07T21:05:16.099Z,1.35
2019-06-07T21:09:20.229Z,1.05
2019-06-07T21:13:24.280Z,1.60
2019-06-07T21:17:28.611Z,0.47
2019-06-07T21:21:32.676Z,1.07
2019-06-07T21:25:36.960Z,1.52
2019-06-07T21:29:42.121Z,0.35
2019-06-07T21:33:46.546Z,1.20
2019-06-07T21:37:50.895Z,0.23
2019-06-07T21:41:55.092Z,0.20
2019-06-07T21:46:05.332Z,0.47
2019-06-07T21:50:08.676Z,0.42
2019-06-07T21:54:14.675Z,1.27
2019-06-07T21:58:20.803Z,0.95
2019-06-07T22:02:24.931Z,1.85
2019-06-07T22:06:28.999Z,1.07
2019-06-07T22:10:33.394Z,0.55
2019-06-07T22:14:38.576Z,2.25
2019-06-07T22:18:42.720Z,2.35
2019-06-07T22:22:46.979Z,2.02
2019-06-07T22:26:51.065Z,0.30
2019-06-07T22:30:55.293Z,0.90
2019-06-07T22:34:59.438Z,0.33
2019-06-07T22:39:05.758Z,2.12
2019-06-07T22:43:10.227Z,1.32
2019-06-07T22:47:14.387Z,0.33
2019-06-07T22:51:18.535Z,1.75
2019-06-07T22:55:22.684Z,1.10
2019-06-07T22:59:26.971Z,0.82
2019-06-07T23:03:31.248Z,1.02
2019-06-07T23:07:35.378Z,1.07
2019-06-07T23:11:39.410Z,1.10
2019-06-07T23:15:43.554Z,1.32
2019-06-07T23:19:47.717Z,0.33
2019-06-07T23:23:51.791Z,2.05
2019-06-07T23:27:55.972Z,0.62
2019-06-07T23:32:00.087Z,0.72
2019-06-07T23:36:04.400Z,0.78
2019-06-07T23:40:08.824Z,2.15
2019-06-07T23:44:13.372Z,2.20
2019-06-07T23:48:17.696Z,0.43
2019-06-07T23:52:22.925Z,3.15
2019-06-07T23:56:27.045Z,3.55
